sensor_id;sensor_type;location;lat;lon;timestamp;pressure;altitude;pressure_sealevel;temperature;humidity
10706;BME280;5404;42.656;23.336;2022-07-25T00:01:54;94887.72;;;23.53;100.00
10706;BME280;5404;42.656;23.336;2022-07-25T00:04:19;94889.72;;;23.60;100.00
10706;BME280;5404;42.656;23.336;2022-07-25T00:06:45;94890.94;;;23.66;100.00
10706;BME280;5404;42.656;23.336;2022-07-25T00:09:11;94891.31;;;23.64;100.00
10706;BME280;5404;42.656;23.336;2022-07-25T00:11:36;94907.59;;;23.57;100.00
10706;BME280;5404;42.656;23.336;2022-07-25T00:14:02;94903.97;;;23.46;100.00
10706;BME280;5404;42.656;23.336;2022-07-25T00:16:28;94911.41;;;23.49;100.00
10706;BME280;5404;42.656;23.336;2022-07-25T00:18:53;94912.88;;;23.43;100.00
10706;BME280;5404;42.656;23.336;2022-07-25T00:21:19;94916.72;;;23.39;100.00
10706;BME280;5404;42.656;23.336;2022-07-25T00:23:44;94904.94;;;23.28;100.00
10706;BME280;5404;42.656;23.336;2022-07-25T00:26:10;94883.41;;;23.16;100.00
10706;BME280;5404;42.656;23.336;2022-07-25T00:28:35;94898.78;;;23.34;100.00
10706;BME280;5404;42.656;23.336;2022-07-25T00:31:01;94896.44;;;23.33;100.00
10706;BME280;5404;42.656;23.336;2022-07-25T00:33:26;94905.28;;;23.26;100.00
10706;BME280;5404;42.656;23.336;2022-07-25T00:35:52;94901.34;;;23.24;100.00
10706;BME280;5404;42.656;23.336;2022-07-25T00:38:17;94893.56;;;23.22;100.00
10706;BME280;5404;42.656;23.336;2022-07-25T00:40:43;94886.13;;;23.16;100.00
10706;BME280;5404;42.656;23.336;2022-07-25T00:43:08;94881.09;;;23.18;100.00
10706;BME280;5404;42.656;23.336;2022-07-25T00:45:34;94879.56;;;23.20;100.00
10706;BME280;5404;42.656;23.336;2022-07-25T00:47:59;94878.47;;;23.25;100.00
10706;BME280;5404;42.656;23.336;2022-07-25T00:50:25;94886.13;;;23.16;100.00
10706;BME280;5404;42.656;23.336;2022-07-25T00:52:51;94878.41;;;23.21;100.00
10706;BME280;5404;42.656;23.336;2022-07-25T00:55:16;94883.09;;;23.24;100.00
10706;BME280;5404;42.656;23.336;2022-07-25T00:57:42;94884.66;;;23.22;100.00
10706;BME280;5404;42.656;23.336;2022-07-25T01:00:10;94890.13;;;23.25;100.00
10706;BME280;5404;42.656;23.336;2022-07-25T01:02:36;94893.22;;;23.27;100.00
10706;BME280;5404;42.656;23.336;2022-07-25T01:05:03;94892.91;;;23.29;100.00
10706;BME280;5404;42.656;23.336;2022-07-25T01:07:30;94890.13;;;23.25;100.00
10706;BME280;5404;42.656;23.336;2022-07-25T01:09:56;94887.78;;;23.27;100.00
10706;BME280;5404;42.656;23.336;2022-07-25T01:12:22;94886.31;;;23.30;100.00
10706;BME280;5404;42.656;23.336;2022-07-25T01:14:48;94882.50;;;23.38;100.00
10706;BME280;5404;42.656;23.336;2022-07-25T01:17:13;94888.78;;;23.42;100.00
10706;BME280;5404;42.656;23.336;2022-07-25T01:19:39;94891.00;;;23.33;100.00
10706;BME280;5404;42.656;23.336;2022-07-25T01:22:04;94885.22;;;23.38;100.00
10706;BME280;5404;42.656;23.336;2022-07-25T01:24:32;94896.19;;;23.45;100.00
10706;BME280;5404;42.656;23.336;2022-07-25T01:26:58;94890.28;;;23.39;100.00
10706;BME280;5404;42.656;23.336;2022-07-25T01:29:23;94870.69;;;23.23;100.00
10706;BME280;5404;42.656;23.336;2022-07-25T01:31:49;94879.84;;;23.11;100.00
10706;BME280;5404;42.656;23.336;2022-07-25T01:34:14;94877.22;;;23.19;100.00
10706;BME280;5404;42.656;23.336;2022-07-25T01:36:40;94876.59;;;23.32;100.00
10706;BME280;5404;42.656;23.336;2022-07-25T01:39:05;94876.69;;;23.39;100.00
10706;BME280;5404;42.656;23.336;2022-07-25T01:41:30;94867.00;;;23.42;100.00
10706;BME280;5404;42.656;23.336;2022-07-25T01:43:56;94867.84;;;23.46;100.00
10706;BME280;5404;42.656;23.336;2022-07-25T01:46:21;94857.75;;;23.50;100.00
10706;BME280;5404;42.656;23.336;2022-07-25T01:48:47;94871.88;;;23.62;100.00
10706;BME280;5404;42.656;23.336;2022-07-25T01:51:12;94877.75;;;23.68;100.00
10706;BME280;5404;42.656;23.336;2022-07-25T01:53:38;94878.94;;;23.70;100.00
10706;BME280;5404;42.656;23.336;2022-07-25T01:56:04;94887.88;;;23.71;100.00
10706;BME280;5404;42.656;23.336;2022-07-25T01:58:30;94878.88;;;23.63;100.00
10706;BME280;5404;42.656;23.336;2022-07-25T02:00:56;94874.91;;;23.54;100.00
10706;BME280;5404;42.656;23.336;2022-07-25T02:03:21;94910.44;;;23.35;100.00
10706;BME280;5404;42.656;23.336;2022-07-25T02:06:00;94914.94;;;23.24;100.00
10706;BME280;5404;42.656;23.336;2022-07-25T02:08:27;94922.63;;;23.15;100.00
10706;BME280;5404;42.656;23.336;2022-07-25T02:10:53;94910.75;;;22.96;100.00
10706;BME280;5404;42.656;23.336;2022-07-25T02:13:18;94929.47;;;23.05;100.00
10706;BME280;5404;42.656;23.336;2022-07-25T02:15:44;94915.47;;;23.03;100.00
10706;BME280;5404;42.656;23.336;2022-07-25T02:18:09;94920.97;;;23.06;100.00
10706;BME280;5404;42.656;23.336;2022-07-25T02:20:35;94933.41;;;23.07;100.00
10706;BME280;5404;42.656;23.336;2022-07-25T02:23:02;94912.69;;;22.96;100.00
10706;BME280;5404;42.656;23.336;2022-07-25T02:25:27;94935.72;;;23.05;100.00
10706;BME280;5404;42.656;23.336;2022-07-25T02:27:52;94913.75;;;22.88;100.00
10706;BME280;5404;42.656;23.336;2022-07-25T02:30:18;94932.06;;;22.94;100.00
10706;BME280;5404;42.656;23.336;2022-07-25T02:32:43;94939.47;;;22.94;100.00
10706;BME280;5404;42.656;23.336;2022-07-25T02:35:09;94937.81;;;22.89;100.00
10706;BME280;5404;42.656;23.336;2022-07-25T02:37:34;94927.22;;;22.81;100.00
10706;BME280;5404;42.656;23.336;2022-07-25T02:40:00;94932.56;;;22.74;100.00
10706;BME280;5404;42.656;23.336;2022-07-25T02:42:25;94924.41;;;22.74;100.00
10706;BME280;5404;42.656;23.336;2022-07-25T02:44:51;94919.25;;;22.65;100.00
10706;BME280;5404;42.656;23.336;2022-07-25T02:47:16;94914.03;;;22.53;100.00
10706;BME280;5404;42.656;23.336;2022-07-25T02:49:42;94923.78;;;22.54;100.00
10706;BME280;5404;42.656;23.336;2022-07-25T02:52:07;94919.66;;;22.41;100.00
10706;BME280;5404;42.656;23.336;2022-07-25T02:54:33;94929.38;;;22.42;100.00
10706;BME280;5404;42.656;23.336;2022-07-25T02:56:58;94930.69;;;22.52;100.00
10706;BME280;5404;42.656;23.336;2022-07-25T02:59:24;94925.63;;;22.50;100.00
10706;BME280;5404;42.656;23.336;2022-07-25T03:01:50;94915.88;;;22.46;100.00
10706;BME280;5404;42.656;23.336;2022-07-25T03:04:15;94915.66;;;22.32;100.00
10706;BME280;5404;42.656;23.336;2022-07-25T03:06:41;94911.72;;;22.29;100.00
10706;BME280;5404;42.656;23.336;2022-07-25T03:09:07;94916.06;;;22.34;100.00
10706;BME280;5404;42.656;23.336;2022-07-25T03:11:32;94924.97;;;22.34;100.00
10706;BME280;5404;42.656;23.336;2022-07-25T03:13:59;94929.72;;;22.37;100.00
10706;BME280;5404;42.656;23.336;2022-07-25T03:16:24;94930.41;;;22.34;100.00
10706;BME280;5404;42.656;23.336;2022-07-25T03:18:50;94921.78;;;22.25;100.00
10706;BME280;5404;42.656;23.336;2022-07-25T03:21:16;94932.25;;;22.27;100.00
10706;BME280;5404;42.656;23.336;2022-07-25T03:23:41;94928.22;;;22.17;100.00
10706;BME280;5404;42.656;23.336;2022-07-25T03:26:07;94922.41;;;22.15;100.00
10706;BME280;5404;42.656;23.336;2022-07-25T03:28:32;94909.22;;;22.17;100.00
10706;BME280;5404;42.656;23.336;2022-07-25T03:30:58;94896.91;;;22.23;100.00
10706;BME280;5404;42.656;23.336;2022-07-25T03:33:23;94899.72;;;22.30;100.00
10706;BME280;5404;42.656;23.336;2022-07-25T03:35:49;94888.50;;;22.32;100.00
10706;BME280;5404;42.656;23.336;2022-07-25T03:38:14;94879.69;;;22.38;100.00
10706;BME280;5404;42.656;23.336;2022-07-25T03:40:40;94878.66;;;22.50;100.00
10706;BME280;5404;42.656;23.336;2022-07-25T03:43:05;94876.00;;;22.53;100.00
10706;BME280;5404;42.656;23.336;2022-07-25T03:45:31;94867.94;;;22.57;100.00
10706;BME280;5404;42.656;23.336;2022-07-25T03:47:56;94864.56;;;22.67;100.00
10706;BME280;5404;42.656;23.336;2022-07-25T03:50:22;94871.56;;;22.68;100.00
10706;BME280;5404;42.656;23.336;2022-07-25T03:52:47;94868.53;;;22.73;100.00
10706;BME280;5404;42.656;23.336;2022-07-25T03:55:13;94872.44;;;22.75;100.00
10706;BME280;5404;42.656;23.336;2022-07-25T03:57:38;94875.63;;;22.81;100.00
10706;BME280;5404;42.656;23.336;2022-07-25T04:00:06;94874.53;;;22.85;100.00
10706;BME280;5404;42.656;23.336;2022-07-25T04:02:32;94872.66;;;22.93;100.00
10706;BME280;5404;42.656;23.336;2022-07-25T04:04:57;94879.81;;;23.04;100.00
10706;BME280;5404;42.656;23.336;2022-07-25T04:07:22;94871.31;;;23.09;100.00
10706;BME280;5404;42.656;23.336;2022-07-25T04:09:48;94852.38;;;23.17;100.00
10706;BME280;5404;42.656;23.336;2022-07-25T04:12:13;94859.84;;;23.27;100.00
10706;BME280;5404;42.656;23.336;2022-07-25T04:14:39;94859.84;;;23.27;100.00
10706;BME280;5404;42.656;23.336;2022-07-25T04:17:04;94863.09;;;23.39;100.00
10706;BME280;5404;42.656;23.336;2022-07-25T04:19:30;94854.59;;;23.44;100.00
10706;BME280;5404;42.656;23.336;2022-07-25T04:21:56;94853.56;;;23.56;100.00
10706;BME280;5404;42.656;23.336;2022-07-25T04:24:21;94839.53;;;23.54;100.00
10706;BME280;5404;42.656;23.336;2022-07-25T04:26:47;94849.00;;;23.70;100.00
10706;BME280;5404;42.656;23.336;2022-07-25T04:29:12;94840.13;;;23.80;100.00
10706;BME280;5404;42.656;23.336;2022-07-25T04:31:37;94843.28;;;23.82;100.00
10706;BME280;5404;42.656;23.336;2022-07-25T04:34:03;94834.75;;;23.87;100.00
10706;BME280;5404;42.656;23.336;2022-07-25T04:36:28;94831.31;;;23.90;100.00
10706;BME280;5404;42.656;23.336;2022-07-25T04:38:54;94839.25;;;24.13;100.00
10706;BME280;5404;42.656;23.336;2022-07-25T04:41:19;94824.50;;;24.14;100.00
10706;BME280;5404;42.656;23.336;2022-07-25T04:43:45;94841.66;;;24.22;100.00
10706;BME280;5404;42.656;23.336;2022-07-25T04:46:10;94840.50;;;24.23;100.00
10706;BME280;5404;42.656;23.336;2022-07-25T04:48:36;94841.25;;;24.19;100.00
10706;BME280;5404;42.656;23.336;2022-07-25T04:51:01;94824.22;;;24.33;100.00
10706;BME280;5404;42.656;23.336;2022-07-25T04:53:27;94845.25;;;24.36;100.00
10706;BME280;5404;42.656;23.336;2022-07-25T04:55:52;94841.03;;;24.49;100.00
10706;BME280;5404;42.656;23.336;2022-07-25T04:58:18;94830.50;;;24.44;100.00
10706;BME280;5404;42.656;23.336;2022-07-25T05:00:43;94830.13;;;24.49;100.00
10706;BME280;5404;42.656;23.336;2022-07-25T05:03:09;94836.34;;;24.46;100.00
10706;BME280;5404;42.656;23.336;2022-07-25T05:05:35;94839.47;;;24.48;100.00
10706;BME280;5404;42.656;23.336;2022-07-25T05:08:00;94833.63;;;24.50;100.00
10706;BME280;5404;42.656;23.336;2022-07-25T05:10:27;94831.72;;;24.54;100.00
10706;BME280;5404;42.656;23.336;2022-07-25T05:12:53;94832.84;;;24.49;100.00
10706;BME280;5404;42.656;23.336;2022-07-25T05:15:19;94841.06;;;24.56;100.00
10706;BME280;5404;42.656;23.336;2022-07-25T05:17:44;94837.59;;;24.59;100.00
10706;BME280;5404;42.656;23.336;2022-07-25T05:20:11;94843.09;;;24.66;100.00
10706;BME280;5404;42.656;23.336;2022-07-25T05:22:37;94848.59;;;24.77;100.00
10706;BME280;5404;42.656;23.336;2022-07-25T05:25:05;94837.38;;;24.96;100.00
10706;BME280;5404;42.656;23.336;2022-07-25T05:27:31;94837.44;;;25.13;100.00
10706;BME280;5404;42.656;23.336;2022-07-25T05:29:56;94845.25;;;25.25;100.00
10706;BME280;5404;42.656;23.336;2022-07-25T05:32:22;94845.69;;;25.34;100.00
10706;BME280;5404;42.656;23.336;2022-07-25T05:34:47;94840.22;;;25.34;100.00
10706;BME280;5404;42.656;23.336;2022-07-25T05:37:13;94844.47;;;25.28;100.00
10706;BME280;5404;42.656;23.336;2022-07-25T05:39:38;94839.78;;;25.18;100.00
10706;BME280;5404;42.656;23.336;2022-07-25T05:42:07;94832.06;;;25.38;100.00
10706;BME280;5404;42.656;23.336;2022-07-25T05:44:32;94833.25;;;25.51;100.00
10706;BME280;5404;42.656;23.336;2022-07-25T05:46:58;94834.03;;;25.52;100.00
10706;BME280;5404;42.656;23.336;2022-07-25T05:49:24;94834.81;;;25.66;100.00
10706;BME280;5404;42.656;23.336;2022-07-25T05:51:49;94826.66;;;25.56;100.00
10706;BME280;5404;42.656;23.336;2022-07-25T05:54:15;94816.50;;;25.60;100.00
10706;BME280;5404;42.656;23.336;2022-07-25T05:56:41;94831.72;;;25.71;100.00
10706;BME280;5404;42.656;23.336;2022-07-25T05:59:06;94827.03;;;25.65;100.00
10706;BME280;5404;42.656;23.336;2022-07-25T06:01:31;94823.91;;;25.59;100.00
10706;BME280;5404;42.656;23.336;2022-07-25T06:03:57;94821.56;;;25.61;100.00
10706;BME280;5404;42.656;23.336;2022-07-25T06:06:22;94821.16;;;25.42;100.00
10706;BME280;5404;42.656;23.336;2022-07-25T06:08:48;94821.16;;;25.42;100.00
10706;BME280;5404;42.656;23.336;2022-07-25T06:11:13;94828.59;;;25.62;100.00
10706;BME280;5404;42.656;23.336;2022-07-25T06:13:39;94814.56;;;25.64;100.00
10706;BME280;5404;42.656;23.336;2022-07-25T06:16:05;94822.34;;;25.76;100.00
10706;BME280;5404;42.656;23.336;2022-07-25T06:18:30;94814.16;;;25.72;100.00
10706;BME280;5404;42.656;23.336;2022-07-25T06:20:55;94818.84;;;25.86;100.00
10706;BME280;5404;42.656;23.336;2022-07-25T06:23:21;94819.22;;;25.81;100.00
10706;BME280;5404;42.656;23.336;2022-07-25T06:25:47;94827.03;;;25.72;100.00
10706;BME280;5404;42.656;23.336;2022-07-25T06:28:13;94825.47;;;25.74;100.00
10706;BME280;5404;42.656;23.336;2022-07-25T06:30:42;94830.16;;;25.84;100.00
10706;BME280;5404;42.656;23.336;2022-07-25T06:33:08;94827.03;;;25.86;100.00
10706;BME280;5404;42.656;23.336;2022-07-25T06:35:33;94821.56;;;25.96;100.00
10706;BME280;5404;42.656;23.336;2022-07-25T06:37:59;94822.34;;;25.90;100.00
10706;BME280;5404;42.656;23.336;2022-07-25T06:40:24;94825.47;;;25.99;100.00
10706;BME280;5404;42.656;23.336;2022-07-25T06:42:50;94816.91;;;26.00;100.00
10706;BME280;5404;42.656;23.336;2022-07-25T06:45:15;94826.66;;;26.15;100.00
10706;BME280;5404;42.656;23.336;2022-07-25T06:47:42;94825.47;;;26.16;100.00
10706;BME280;5404;42.656;23.336;2022-07-25T06:50:10;94817.28;;;26.23;100.00
10706;BME280;5404;42.656;23.336;2022-07-25T06:52:37;94820.00;;;26.30;100.00
10706;BME280;5404;42.656;23.336;2022-07-25T06:55:04;94805.19;;;26.28;100.00
10706;BME280;5404;42.656;23.336;2022-07-25T06:57:30;94811.38;;;26.46;100.00
10706;BME280;5404;42.656;23.336;2022-07-25T06:59:55;94816.84;;;26.39;100.00
10706;BME280;5404;42.656;23.336;2022-07-25T07:02:21;94804.41;;;26.27;100.00
10706;BME280;5404;42.656;23.336;2022-07-25T07:04:46;94797.72;;;26.32;100.00
10706;BME280;5404;42.656;23.336;2022-07-25T07:07:12;94807.81;;;26.56;100.00
10706;BME280;5404;42.656;23.336;2022-07-25T07:09:37;94806.66;;;26.54;100.00
10706;BME280;5404;42.656;23.336;2022-07-25T07:12:03;94798.13;;;26.37;100.00
10706;BME280;5404;42.656;23.336;2022-07-25T07:14:28;94801.97;;;26.54;100.00
10706;BME280;5404;42.656;23.336;2022-07-25T07:16:54;94800.38;;;26.64;100.00
10706;BME280;5404;42.656;23.336;2022-07-25T07:19:19;94810.50;;;26.77;100.00
10706;BME280;5404;42.656;23.336;2022-07-25T07:21:45;94816.75;;;26.81;100.00
10706;BME280;5404;42.656;23.336;2022-07-25T07:24:10;94800.34;;;26.81;100.00
10706;BME280;5404;42.656;23.336;2022-07-25T07:26:36;94804.22;;;26.87;100.00
10706;BME280;5404;42.656;23.336;2022-07-25T07:29:02;94804.59;;;26.93;100.00
10706;BME280;5404;42.656;23.336;2022-07-25T07:31:28;94801.81;;;27.00;100.00
10706;BME280;5404;42.656;23.336;2022-07-25T07:33:53;94808.78;;;27.11;100.00
10706;BME280;5404;42.656;23.336;2022-07-25T07:36:19;94803.38;;;26.97;100.00
10706;BME280;5404;42.656;23.336;2022-07-25T07:38:45;94800.19;;;27.09;100.00
10706;BME280;5404;42.656;23.336;2022-07-25T07:41:12;94788.06;;;27.14;100.00
10706;BME280;5404;42.656;23.336;2022-07-25T07:43:38;94799.72;;;27.25;100.00
10706;BME280;5404;42.656;23.336;2022-07-25T07:46:03;94793.13;;;27.15;100.00
10706;BME280;5404;42.656;23.336;2022-07-25T07:48:29;94794.22;;;27.28;100.00
10706;BME280;5404;42.656;23.336;2022-07-25T07:50:55;94804.38;;;27.28;100.00
10706;BME280;5404;42.656;23.336;2022-07-25T07:53:20;94797.47;;;27.09;100.00
10706;BME280;5404;42.656;23.336;2022-07-25T07:55:46;94789.56;;;27.29;100.00
10706;BME280;5404;42.656;23.336;2022-07-25T07:58:19;94789.06;;;27.48;100.00
10706;BME280;5404;42.656;23.336;2022-07-25T08:00:47;94776.84;;;27.56;100.00
10706;BME280;5404;42.656;23.336;2022-07-25T08:03:17;94791.16;;;27.78;100.00
10706;BME280;5404;42.656;23.336;2022-07-25T08:05:44;94786.38;;;27.92;100.00
10706;BME280;5404;42.656;23.336;2022-07-25T08:08:12;94785.13;;;28.00;100.00
10706;BME280;5404;42.656;23.336;2022-07-25T08:10:41;94794.81;;;28.12;100.00
10706;BME280;5404;42.656;23.336;2022-07-25T08:13:27;94791.31;;;28.08;100.00
10706;BME280;5404;42.656;23.336;2022-07-25T08:15:56;94794.22;;;28.31;100.00
10706;BME280;5404;42.656;23.336;2022-07-25T08:18:23;94794.75;;;28.19;98.74
10706;BME280;5404;42.656;23.336;2022-07-25T08:20:50;94795.78;;;28.32;99.66
10706;BME280;5404;42.656;23.336;2022-07-25T08:23:16;94793.59;;;28.50;98.37
10706;BME280;5404;42.656;23.336;2022-07-25T08:25:42;94789.28;;;28.56;92.69
10706;BME280;5404;42.656;23.336;2022-07-25T08:28:08;94784.91;;;28.58;92.83
10706;BME280;5404;42.656;23.336;2022-07-25T08:30:35;94799.09;;;28.50;92.52
10706;BME280;5404;42.656;23.336;2022-07-25T08:33:03;94794.53;;;28.77;91.49
10706;BME280;5404;42.656;23.336;2022-07-25T08:35:29;94781.34;;;28.95;89.38
10706;BME280;5404;42.656;23.336;2022-07-25T08:37:56;94792.97;;;29.06;87.27
10706;BME280;5404;42.656;23.336;2022-07-25T08:40:25;94793.06;;;29.29;88.00
10706;BME280;5404;42.656;23.336;2022-07-25T08:42:51;94789.34;;;29.16;87.82
10706;BME280;5404;42.656;23.336;2022-07-25T08:45:19;94781.28;;;29.32;85.91
10706;BME280;5404;42.656;23.336;2022-07-25T08:47:47;94782.44;;;29.31;85.44
10706;BME280;5404;42.656;23.336;2022-07-25T08:50:16;94778.69;;;29.22;85.14
10706;BME280;5404;42.656;23.336;2022-07-25T08:52:43;94794.72;;;29.23;85.37
10706;BME280;5404;42.656;23.336;2022-07-25T08:55:11;94777.97;;;29.14;86.51
10706;BME280;5404;42.656;23.336;2022-07-25T08:57:42;94791.22;;;29.49;86.71
10706;BME280;5404;42.656;23.336;2022-07-25T09:00:10;94781.94;;;29.66;87.60
10706;BME280;5404;42.656;23.336;2022-07-25T09:02:37;94778.91;;;29.84;87.25
10706;BME280;5404;42.656;23.336;2022-07-25T09:05:03;94784.22;;;29.95;83.70
10706;BME280;5404;42.656;23.336;2022-07-25T09:09:55;94781.38;;;29.79;83.94
10706;BME280;5404;42.656;23.336;2022-07-25T09:12:26;94779.44;;;29.75;83.64
10706;BME280;5404;42.656;23.336;2022-07-25T09:14:53;94779.75;;;30.04;83.91
10706;BME280;5404;42.656;23.336;2022-07-25T09:17:18;94769.78;;;29.91;81.78
10706;BME280;5404;42.656;23.336;2022-07-25T09:19:54;94765.47;;;30.13;78.65
10706;BME280;5404;42.656;23.336;2022-07-25T09:22:20;94763.31;;;31.41;75.11
10706;BME280;5404;42.656;23.336;2022-07-25T09:24:46;94770.16;;;33.69;56.22
10706;BME280;5404;42.656;23.336;2022-07-25T09:27:11;94770.44;;;34.09;52.63
10706;BME280;5404;42.656;23.336;2022-07-25T09:29:38;94757.47;;;35.08;47.90
10706;BME280;5404;42.656;23.336;2022-07-25T09:32:18;94753.72;;;36.03;46.90
10706;BME280;5404;42.656;23.336;2022-07-25T09:34:46;94758.75;;;37.08;42.01
10706;BME280;5404;42.656;23.336;2022-07-25T09:37:17;94755.28;;;37.40;40.47
10706;BME280;5404;42.656;23.336;2022-07-25T09:39:48;94752.75;;;38.49;39.04
10706;BME280;5404;42.656;23.336;2022-07-25T09:45:04;94756.53;;;36.21;41.43
10706;BME280;5404;42.656;23.336;2022-07-25T09:47:32;94755.75;;;34.46;46.22
10706;BME280;5404;42.656;23.336;2022-07-25T09:49:58;94757.34;;;33.50;48.76
10706;BME280;5404;42.656;23.336;2022-07-25T09:52:24;94755.56;;;33.56;48.23
10706;BME280;5404;42.656;23.336;2022-07-25T09:54:49;94743.78;;;34.49;45.96
10706;BME280;5404;42.656;23.336;2022-07-25T09:57:15;94752.41;;;35.77;41.63
10706;BME280;5404;42.656;23.336;2022-07-25T09:59:41;94736.41;;;38.42;36.77
10706;BME280;5404;42.656;23.336;2022-07-25T10:05:08;94753.03;;;36.57;39.49
10706;BME280;5404;42.656;23.336;2022-07-25T10:07:37;94749.91;;;34.87;42.66
10706;BME280;5404;42.656;23.336;2022-07-25T10:10:04;94742.66;;;34.12;44.33
10706;BME280;5404;42.656;23.336;2022-07-25T10:12:30;94747.84;;;34.79;42.13
10706;BME280;5404;42.656;23.336;2022-07-25T10:15:08;94736.09;;;33.60;43.07
10706;BME280;5404;42.656;23.336;2022-07-25T10:17:35;94739.34;;;34.73;42.81
10706;BME280;5404;42.656;23.336;2022-07-25T10:20:03;94730.53;;;36.55;36.75
10706;BME280;5404;42.656;23.336;2022-07-25T10:22:41;94729.84;;;37.14;36.38
10706;BME280;5404;42.656;23.336;2022-07-25T10:27:51;94739.81;;;39.42;31.80
10706;BME280;5404;42.656;23.336;2022-07-25T10:30:37;94731.28;;;38.79;32.84
10706;BME280;5404;42.656;23.336;2022-07-25T10:33:10;94735.53;;;37.29;34.77
10706;BME280;5404;42.656;23.336;2022-07-25T10:35:36;94723.19;;;39.19;32.63
10706;BME280;5404;42.656;23.336;2022-07-25T10:38:03;94717.16;;;38.29;32.67
10706;BME280;5404;42.656;23.336;2022-07-25T10:40:43;94720.06;;;39.75;31.48
10706;BME280;5404;42.656;23.336;2022-07-25T10:43:13;94727.22;;;41.17;28.37
10706;BME280;5404;42.656;23.336;2022-07-25T10:45:41;94716.88;;;40.57;28.17
10706;BME280;5404;42.656;23.336;2022-07-25T10:48:18;94708.84;;;40.85;28.21
10706;BME280;5404;42.656;23.336;2022-07-25T10:50:49;94719.31;;;42.14;26.75
10706;BME280;5404;42.656;23.336;2022-07-25T10:53:47;94720.19;;;42.85;25.27
10706;BME280;5404;42.656;23.336;2022-07-25T10:56:20;94719.16;;;40.99;26.79
10706;BME280;5404;42.656;23.336;2022-07-25T10:58:49;94716.66;;;41.32;26.22
10706;BME280;5404;42.656;23.336;2022-07-25T11:01:23;94711.44;;;42.71;24.85
10706;BME280;5404;42.656;23.336;2022-07-25T11:03:50;94710.91;;;39.89;27.74
10706;BME280;5404;42.656;23.336;2022-07-25T11:06:27;94702.59;;;39.31;28.71
10706;BME280;5404;42.656;23.336;2022-07-25T11:08:53;94698.47;;;37.97;30.02
10706;BME280;5404;42.656;23.336;2022-07-25T11:11:32;94697.94;;;35.92;33.38
10706;BME280;5404;42.656;23.336;2022-07-25T11:13:57;94700.78;;;34.57;36.74
10706;BME280;5404;42.656;23.336;2022-07-25T11:16:25;94694.06;;;33.77;38.92
10706;BME280;5404;42.656;23.336;2022-07-25T11:18:51;94697.75;;;33.49;41.25
10706;BME280;5404;42.656;23.336;2022-07-25T11:21:18;94680.91;;;35.63;37.63
10706;BME280;5404;42.656;23.336;2022-07-25T11:23:49;94682.38;;;37.69;29.82
10706;BME280;5404;42.656;23.336;2022-07-25T11:26:15;94683.16;;;38.64;28.26
10706;BME280;5404;42.656;23.336;2022-07-25T11:28:46;94666.78;;;39.09;28.40
10706;BME280;5404;42.656;23.336;2022-07-25T11:31:13;94681.47;;;36.25;30.76
10706;BME280;5404;42.656;23.336;2022-07-25T11:33:41;94674.88;;;34.64;35.58
10706;BME280;5404;42.656;23.336;2022-07-25T11:36:09;94664.72;;;33.21;39.32
10706;BME280;5404;42.656;23.336;2022-07-25T11:38:35;94672.31;;;31.93;43.17
10706;BME280;5404;42.656;23.336;2022-07-25T11:41:01;94672.25;;;31.64;45.71
10706;BME280;5404;42.656;23.336;2022-07-25T11:43:27;94666.44;;;31.91;45.13
10706;BME280;5404;42.656;23.336;2022-07-25T11:46:04;94662.19;;;32.03;44.22
10706;BME280;5404;42.656;23.336;2022-07-25T11:48:38;94669.09;;;31.78;45.77
10706;BME280;5404;42.656;23.336;2022-07-25T11:51:16;94661.97;;;31.01;48.36
10706;BME280;5404;42.656;23.336;2022-07-25T11:53:47;94663.63;;;31.30;48.58
10706;BME280;5404;42.656;23.336;2022-07-25T11:56:19;94663.72;;;31.59;45.06
10706;BME280;5404;42.656;23.336;2022-07-25T11:59:00;94655.63;;;31.68;42.51
10706;BME280;5404;42.656;23.336;2022-07-25T12:01:35;94650.75;;;31.43;42.43
10706;BME280;5404;42.656;23.336;2022-07-25T12:04:27;94652.25;;;31.28;45.94
10706;BME280;5404;42.656;23.336;2022-07-25T12:07:03;94651.91;;;30.94;49.14
10706;BME280;5404;42.656;23.336;2022-07-25T12:09:29;94644.59;;;31.04;49.71
10706;BME280;5404;42.656;23.336;2022-07-25T12:12:02;94633.69;;;31.48;47.76
10706;BME280;5404;42.656;23.336;2022-07-25T12:14:28;94643.66;;;31.74;45.84
10706;BME280;5404;42.656;23.336;2022-07-25T12:16:53;94635.34;;;31.90;43.91
10706;BME280;5404;42.656;23.336;2022-07-25T12:19:20;94636.34;;;32.13;44.66
10706;BME280;5404;42.656;23.336;2022-07-25T12:21:46;94629.53;;;32.71;44.03
10706;BME280;5404;42.656;23.336;2022-07-25T12:24:11;94637.91;;;32.55;45.89
10706;BME280;5404;42.656;23.336;2022-07-25T12:26:37;94629.44;;;31.92;46.04
10706;BME280;5404;42.656;23.336;2022-07-25T12:29:02;94624.00;;;31.88;45.69
10706;BME280;5404;42.656;23.336;2022-07-25T12:31:28;94626.31;;;32.19;47.31
10706;BME280;5404;42.656;23.336;2022-07-25T12:33:54;94631.72;;;32.51;46.61
10706;BME280;5404;42.656;23.336;2022-07-25T12:36:20;94608.22;;;32.18;46.82
10706;BME280;5404;42.656;23.336;2022-07-25T12:38:45;94619.47;;;32.23;48.12
10706;BME280;5404;42.656;23.336;2022-07-25T12:41:11;94622.56;;;32.54;48.70
10706;BME280;5404;42.656;23.336;2022-07-25T12:43:36;94613.09;;;32.67;45.91
10706;BME280;5404;42.656;23.336;2022-07-25T12:46:03;94610.53;;;32.48;46.48
10706;BME280;5404;42.656;23.336;2022-07-25T12:48:29;94621.16;;;31.92;51.14
10706;BME280;5404;42.656;23.336;2022-07-25T12:50:54;94621.75;;;31.83;46.91
10706;BME280;5404;42.656;23.336;2022-07-25T12:53:20;94606.56;;;32.20;46.02
10706;BME280;5404;42.656;23.336;2022-07-25T12:55:46;94609.75;;;32.60;42.56
10706;BME280;5404;42.656;23.336;2022-07-25T12:58:11;94604.06;;;33.04;42.61
10706;BME280;5404;42.656;23.336;2022-07-25T13:00:39;94603.28;;;33.17;41.93
10706;BME280;5404;42.656;23.336;2022-07-25T13:03:04;94598.41;;;32.70;42.33